x

South Hecate Strait (46185) Wave Buoy

1:00pm - Thu 30th Mar 2017 All times are PDT. -7 hours from GMT.

  • Sig Wave height 3.9ft
  • Peak Period 8s
  • Wind
    9mph, 13mph gusts
  • Sea Temp 49°f
  • Air Temp 45°f
  • Sea Pressure 1024.3mb
  • South Hecate Strait
  • South Hecate Strait

More Historic Weather Station data

Upgrade to MSW Pro to gain access to the past 30 days of data for over 8000 Wavebouys and Weather Stations around the globe.

Join Pro

Comparision Forecast

View Surf forecast
   
Thu 03/30 1:00pm 4ft 8s 9 13 mph 1024.3mb 49f 45f
12:00pm 4ft 9s 9 11 mph 1023.9mb 48f 45f
11:00am 4ft 9s 9
mph
1023.9mb 48f 45f
10:00am 3.5ft 8s 2 7 mph 1023.1mb 48f 44f
9:00am 3.5ft 10s 4 7 mph 1022.8mb 48f 44f
8:00am 3.5ft 8s 2
mph
1022.7mb 48f 44f
6:00am 3.5ft 14s 2 4 mph 1021.1mb 48f 45f
5:00am 3.5ft 9s 7 9 mph 1020.3mb 48f 45f
4:00am 4ft 14s 11 16 mph 1019.4mb 48f 44f
3:00am 4ft 8s 16 18 mph 1018.8mb 48f 45f
2:00am 4ft 10s 16 20 mph 1018.5mb 48f 45f
1:00am 4ft 15s 13 18 mph 1017.6mb 48f 45f
12:00am 4ft 8s 11 13 mph 1016.6mb 48f 46f
Wed 03/29 11:00pm 4ft 9s 11 13 mph 1015.5mb 48f 46f
10:00pm 4.5ft 10s 11 13 mph 1014.9mb 48f 46f
9:00pm 4.5ft 10s 11 13 mph 1013.8mb 48f 46f
8:00pm 4.5ft 9s 11 13 mph 1012.8mb 48f 45f
7:00pm 4ft 14s 11 13 mph 1012mb 48f 45f
6:00pm 4.5ft 15s 13 16 mph 1011.2mb 48f 45f
5:00pm 4.5ft 15s 16 18 mph 1010.4mb 48f 45f
4:00pm 4.5ft 10s 16 18 mph 1009.6mb 48f 44f
3:00pm 4.5ft 10s 13 16 mph 1009mb 48f 44f
2:00pm 4.5ft 8s 13 16 mph 1008.6mb 48f 44f
1:00pm 4.5ft 10s 11 13 mph 1008.3mb 48f 44f
12:00pm 4.5ft 11s 9 11 mph 1008.3mb 48f 43f
11:00am 5ft 10s 9 13 mph 1008.3mb 48f 43f
10:00am 5.5ft 11s 4 7 mph 1008.6mb 48f 44f
9:00am 5ft 10s 2 4 mph 1008.6mb 48f 43f
8:00am 5.5ft 9s 2 4 mph 1008.5mb 48f 43f
7:00am 5.5ft 10s 4 7 mph 1009mb 48f 43f
6:00am 5.5ft 10s 7 9 mph 1009.4mb 48f 45f
5:00am 5.5ft 10s 4 7 mph 1009.7mb 48f 46f
4:00am 6ft 9s 9 11 mph 1010.2mb 48f 45f
3:00am 7ft 9s 11 13 mph 1011mb 48f 46f
2:00am 7ft 10s 13
mph
1011.7mb 48f 46f
1:00am 6ft 10s 7 9 mph 1012.5mb 48f 45f
12:00am 6ft 11s 11 13 mph 1013.2mb 48f 45f
Tue 03/28 11:00pm 6ft 11s 9 11 mph 1013.7mb 48f 46f
10:00pm 6.5ft 10s 13
mph
1014.2mb 48f 45f
9:00pm 6.5ft 10s 13
mph
1014.2mb 48f 46f
8:00pm 7ft 10s 13 18 mph 1013.8mb 48f 45f
7:00pm 7ft 10s 16 20 mph 1013.8mb 48f 45f
6:00pm 8ft 10s 20 22 mph 1013.1mb 48f 44f
5:00pm 8ft 10s 18 22 mph 1012.7mb 48f 44f
4:00pm 8ft 9s 20 25 mph 1012mb 48f 44f
3:00pm 8ft 11s 22 27 mph 1011.2mb 48f 44f
2:00pm 8ft 8s 20 25 mph 1010.5mb 48f 45f
1:00pm 8ft 7s 20 25 mph 1009.9mb 48f 44f
12:00pm 8ft 11s 18 22 mph 1009.3mb 48f 45f
11:00am 8ft 7s 18 20 mph 1008.4mb 48f 45f
10:00am 8ft 8s 16 20 mph 1007.5mb 47f 45f
9:00am 8.5ft 8s 13 18 mph 1006.8mb 47f 44f
8:00am 8.5ft 8s 9 13 mph 1005.7mb 47f 44f
7:00am 9ft 8s 7 9 mph 1005mb 47f 43f
6:00am 10ft 9s 7 11 mph 1004.6mb 48f 45f
5:00am 10ft 8s 13 16 mph 1004.4mb 48f 46f
4:00am 11.5ft 8s 13 18 mph 1004.3mb 48f 46f
3:00am 12ft 8s 20 27 mph 1004.2mb 48f 46f
2:00am 12ft 8s 27 36 mph 1004.2mb 47f 46f
1:00am 13ft 8s 29 36 mph 1005.3mb 47f 46f
12:00am 13ft 8s 34 40 mph 1005.7mb 47f 46f
Mon 03/27 11:00pm 11.5ft 11s 34 43 mph 1006.2mb 47f 45f
10:00pm 11ft 11s 34 43 mph 1006.7mb 47f 45f
9:00pm 9ft 11s 29 38 mph 1007.5mb 47f 45f
8:00pm 7.5ft 12s 22 27 mph 1008.5mb 47f 44f
7:00pm 7ft 10s 22 27 mph 1009.1mb 47f 44f
6:00pm 6.5ft 13s 20 25 mph 1009.2mb 47f 44f
5:00pm 6.5ft 10s 18 20 mph 1009.5mb 47f 44f
4:00pm 6.5ft 11s 18 22 mph 1009mb 47f 43f
3:00pm 7ft 10s 20 25 mph 1008.4mb 47f 44f
2:00pm 6.5ft 10s 22 27 mph 1008.1mb 47f 44f
1:00pm 7.5ft 10s 20 22 mph 1007.7mb 47f 44f
12:00pm 7.5ft 12s 20 22 mph 1007.6mb 47f 45f
11:00am 7ft 9s 22 27 mph 1007mb 47f 45f
10:00am 6ft 8s 25 29 mph 1006.4mb 47f 45f
9:00am 6.5ft 8s 22 29 mph 1006.4mb 47f 44f
8:00am 6ft 8s 20 22 mph 1006.3mb 47f 44f
7:00am 7ft 9s 20 25 mph 1006.2mb 47f 44f
6:00am 6.5ft 10s 25 29 mph 1005.5mb 47f 46f
5:00am 7ft 9s 20 27 mph 1005.6mb 48f 46f
4:00am 6.5ft 10s 22 25 mph 1005.1mb 48f 47f
3:00am 6.5ft 10s 16 18 mph 1004.6mb 48f 46f
2:00am 7ft 10s 18 22 mph 1004.2mb 48f 46f
1:00am 7ft 10s 18 22 mph 1003.5mb 48f 46f
12:00am 8ft 10s 20 25 mph 1002.7mb 48f 45f
Sun 03/26 11:00pm 8ft 10s 25 31 mph 1001.6mb 48f 45f
10:00pm 10ft 10s 20 27 mph 1000.3mb 48f 46f